Time;durP1;ratioP1;P1;durP2;ratioP2;P2;SDS_P1;SDS_P2;PMS_P1;PMS_P2;Temp;Humidity;BMP_temperature;BMP_pressure;BME280_temperature;BME280_humidity;BME280_pressure;Samples;Min_cycle;Max_cycle;Signal;HPM_P1;HPM_P2
2023/09/11 00:00:24;;;;;;;12.32;8.40;;;20.90;99.90;;;;;;4952234;28;20007;-77
2023/09/11 00:02:52;;;;;;;13.18;8.70;;;20.90;99.90;;;;;;4967959;28;20106;-77
2023/09/11 00:05:24;;;;;;;10.60;8.75;;;20.90;99.90;;;;;;4957247;28;20427;-76
2023/09/11 00:07:53;;;;;;;11.18;8.20;;;20.90;99.90;;;;;;4971664;28;20027;-76
2023/09/11 00:10:22;;;;;;;12.85;8.93;;;20.90;99.90;;;;;;4955434;28;20065;-76
2023/09/11 00:12:48;;;;;;;12.55;8.75;;;20.80;99.90;;;;;;4967487;28;20027;-78
2023/09/11 00:15:23;;;;;;;12.95;8.80;;;20.70;99.90;;;;;;4954670;28;20043;-76
2023/09/11 00:17:55;;;;;;;11.95;8.85;;;20.80;99.90;;;;;;4953156;28;20072;-77
2023/09/11 00:20:21;;;;;;;12.10;8.40;;;20.70;99.90;;;;;;4951793;29;20168;-80
2023/09/11 00:22:49;;;;;;;10.10;8.70;;;20.70;99.90;;;;;;4957460;28;20070;-77
2023/09/11 00:25:15;;;;;;;12.30;9.20;;;20.70;99.90;;;;;;4969059;28;20035;-76
2023/09/11 00:27:40;;;;;;;12.07;9.20;;;20.70;99.90;;;;;;4952400;28;20091;-79
2023/09/11 00:30:07;;;;;;;13.73;9.73;;;20.70;99.90;;;;;;4954236;28;20046;-78
2023/09/11 00:32:35;;;;;;;12.55;8.80;;;20.70;99.90;;;;;;4952297;28;20039;-77
2023/09/11 00:35:01;;;;;;;13.32;8.27;;;20.70;99.90;;;;;;4967889;28;20035;-79
2023/09/11 00:37:36;;;;;;;10.45;8.65;;;20.70;99.90;;;;;;4957529;28;20118;-78
2023/09/11 00:40:05;;;;;;;11.20;9.05;;;20.60;99.90;;;;;;4958577;28;20043;-81
2023/09/11 00:42:33;;;;;;;11.32;8.52;;;20.60;99.90;;;;;;4962336;28;20109;-81
2023/09/11 00:44:59;;;;;;;10.38;8.23;;;20.50;99.90;;;;;;4963495;28;20062;-81
2023/09/11 00:47:25;;;;;;;13.23;9.30;;;20.50;99.90;;;;;;4974098;28;20059;-76
2023/09/11 00:49:59;;;;;;;12.27;8.90;;;20.50;99.90;;;;;;4958580;28;20023;-77
2023/09/11 00:52:32;;;;;;;12.13;8.48;;;20.50;99.90;;;;;;4957102;28;20039;-78
2023/09/11 00:54:59;;;;;;;12.70;8.93;;;20.40;99.90;;;;;;4961459;28;20038;-79
2023/09/11 00:57:26;;;;;;;12.18;8.35;;;20.40;99.90;;;;;;4960344;28;20047;-79
2023/09/11 00:59:55;;;;;;;14.60;9.40;;;20.50;99.90;;;;;;4959299;28;20058;-78
2023/09/11 01:02:27;;;;;;;13.77;9.20;;;20.40;99.90;;;;;;4957371;28;20027;-79
2023/09/11 01:04:58;;;;;;;13.68;9.32;;;20.40;99.90;;;;;;4962069;28;20032;-79
2023/09/11 01:07:24;;;;;;;15.38;9.25;;;20.40;99.90;;;;;;4958109;28;20387;-77
2023/09/11 01:09:56;;;;;;;14.30;9.05;;;20.40;99.90;;;;;;4956645;28;20023;-77
2023/09/11 01:12:21;;;;;;;13.20;9.73;;;20.30;99.90;;;;;;4964618;28;20027;-78
2023/09/11 01:15:04;;;;;;;11.70;8.60;;;20.30;99.90;;;;;;4974176;28;20034;-80
2023/09/11 01:17:46;;;;;;;12.88;8.95;;;20.20;99.90;;;;;;4958758;28;20036;-79
2023/09/11 01:20:36;;;;;;;15.85;8.77;;;20.20;99.90;;;;;;4974757;28;20128;-78
2023/09/11 01:23:33;;;;;;;12.30;8.75;;;20.10;99.90;;;;;;4970653;28;20052;-79
2023/09/11 01:26:33;;;;;;;12.32;8.70;;;20.10;99.90;;;;;;4960396;29;20046;-79
2023/09/11 01:29:21;;;;;;;12.68;9.25;;;20.00;99.90;;;;;;4975451;28;20541;-77
2023/09/11 01:31:51;;;;;;;12.13;8.82;;;20.00;99.90;;;;;;4958838;28;20035;-80
2023/09/11 01:34:20;;;;;;;12.10;7.82;;;19.90;99.90;;;;;;4975183;28;20058;-78
2023/09/11 01:36:49;;;;;;;11.95;9.38;;;19.90;99.90;;;;;;4959652;28;20042;-78
2023/09/11 01:39:17;;;;;;;16.83;9.77;;;19.90;99.90;;;;;;4957645;28;20031;-76
2023/09/11 01:41:47;;;;;;;12.13;9.38;;;19.80;99.90;;;;;;4956349;28;20028;-78
2023/09/11 01:44:27;;;;;;;13.65;9.38;;;19.80;99.90;;;;;;4972650;28;20103;-77
2023/09/11 01:46:56;;;;;;;10.65;8.38;;;19.80;99.90;;;;;;4953530;28;20485;-77
2023/09/11 01:49:26;;;;;;;10.48;8.93;;;19.80;99.90;;;;;;4956723;28;20019;-78
2023/09/11 01:51:56;;;;;;;13.00;9.00;;;19.80;99.90;;;;;;4954854;28;20031;-78
2023/09/11 01:54:25;;;;;;;16.67;9.45;;;19.80;99.90;;;;;;4951457;28;20031;-79
2023/09/11 01:56:51;;;;;;;13.23;9.18;;;19.80;99.90;;;;;;4972887;28;20054;-79
2023/09/11 01:59:17;;;;;;;13.85;10.00;;;19.80;99.90;;;;;;4961527;28;20043;-78
2023/09/11 02:01:45;;;;;;;15.15;10.02;;;19.80;99.90;;;;;;4960177;28;20024;-79
2023/09/11 02:04:11;;;;;;;15.32;9.55;;;19.80;99.90;;;;;;4956015;28;20074;-79
2023/09/11 02:06:37;;;;;;;15.05;9.45;;;19.80;99.90;;;;;;4962142;28;20082;-79
2023/09/11 02:09:06;;;;;;;13.18;9.27;;;19.80;99.90;;;;;;4960627;28;20023;-78
2023/09/11 02:11:35;;;;;;;17.27;9.82;;;19.70;99.90;;;;;;4957054;28;20035;-78
2023/09/11 02:14:06;;;;;;;12.57;9.00;;;19.70;99.90;;;;;;4960867;28;20036;-78
2023/09/11 02:16:32;;;;;;;9.85;7.95;;;19.70;99.90;;;;;;4957510;28;20512;-77
2023/09/11 02:19:00;;;;;;;10.38;8.82;;;19.70;99.90;;;;;;4955545;29;20027;-77
2023/09/11 02:21:26;;;;;;;11.73;8.57;;;19.60;99.90;;;;;;4956817;28;20120;-78
2023/09/11 02:23:52;;;;;;;11.55;8.55;;;19.60;99.90;;;;;;4973458;28;20060;-77
2023/09/11 02:26:18;;;;;;;12.85;8.85;;;19.60;99.90;;;;;;4972694;28;20032;-77
2023/09/11 02:28:46;;;;;;;12.63;8.65;;;19.50;99.90;;;;;;4958059;28;20455;-77
2023/09/11 02:31:12;;;;;;;10.38;8.20;;;19.50;99.90;;;;;;4971816;28;20031;-77
2023/09/11 02:33:40;;;;;;;11.07;8.57;;;19.40;99.90;;;;;;4956453;28;20039;-78
2023/09/11 02:36:12;;;;;;;10.50;8.38;;;19.40;99.90;;;;;;4956689;28;20027;-78
2023/09/11 02:38:38;;;;;;;11.57;8.90;;;19.40;99.90;;;;;;4972793;28;20390;-80
2023/09/11 02:41:07;;;;;;;11.00;8.88;;;19.30;99.90;;;;;;4962659;28;20316;-77
2023/09/11 02:43:39;;;;;;;14.40;10.45;;;19.30;99.90;;;;;;4957268;28;20110;-78
2023/09/11 02:46:04;;;;;;;12.68;9.73;;;19.30;99.90;;;;;;4956489;29;20401;-79
2023/09/11 02:48:31;;;;;;;11.15;9.50;;;19.20;99.90;;;;;;4973448;28;21312;-76
2023/09/11 02:50:58;;;;;;;14.63;10.27;;;19.20;99.90;;;;;;4955720;28;20023;-76
2023/09/11 02:53:27;;;;;;;12.02;9.70;;;19.10;99.90;;;;;;4975472;28;20509;-77
2023/09/11 02:55:53;;;;;;;15.68;9.85;;;19.10;99.90;;;;;;4955388;29;20398;-77
2023/09/11 02:58:18;;;;;;;13.85;10.35;;;19.10;99.90;;;;;;4976924;28;20038;-77
2023/09/11 03:00:52;;;;;;;10.75;8.90;;;19.00;99.90;;;;;;4955831;28;20110;-77
2023/09/11 03:03:18;;;;;;;12.70;9.63;;;19.00;99.90;;;;;;4971983;28;20035;-76
2023/09/11 03:05:48;;;;;;;13.77;10.40;;;19.00;99.90;;;;;;4971714;28;20023;-76
2023/09/11 03:08:16;;;;;;;14.57;9.70;;;19.00;99.90;;;;;;4957141;28;20027;-76
2023/09/11 03:10:43;;;;;;;13.55;9.50;;;18.90;99.90;;;;;;4970743;28;20031;-79
2023/09/11 03:13:09;;;;;;;12.57;9.95;;;18.90;99.90;;;;;;4956454;28;20047;-80
2023/09/11 03:15:42;;;;;;;14.40;10.02;;;18.90;99.90;;;;;;4962615;28;20094;-76
2023/09/11 03:18:14;;;;;;;13.35;10.05;;;18.80;99.90;;;;;;4958010;28;20027;-78
2023/09/11 03:20:42;;;;;;;12.63;9.52;;;18.80;99.90;;;;;;4955453;29;20042;-76
2023/09/11 03:23:21;;;;;;;16.45;10.13;;;18.80;99.90;;;;;;4952636;28;20031;-76
2023/09/11 03:25:50;;;;;;;13.75;10.32;;;18.80;99.90;;;;;;4956392;28;20031;-75
2023/09/11 03:28:18;;;;;;;13.52;10.15;;;18.80;99.90;;;;;;4973695;28;20418;-77
2023/09/11 03:30:50;;;;;;;16.35;10.55;;;18.80;99.90;;;;;;4969788;28;20047;-76
2023/09/11 03:33:16;;;;;;;14.52;10.60;;;18.70;99.90;;;;;;4957343;28;20031;-78
2023/09/11 03:35:46;;;;;;;16.05;10.52;;;18.70;99.90;;;;;;4969709;28;20106;-80
2023/09/11 03:38:13;;;;;;;15.52;11.65;;;18.70;99.90;;;;;;4972069;28;20041;-77
2023/09/11 03:40:57;;;;;;;15.55;11.10;;;18.70;99.90;;;;;;4957039;28;20035;-81
2023/09/11 03:43:28;;;;;;;15.32;10.68;;;18.70;99.90;;;;;;4955110;28;20110;-80
2023/09/11 03:45:53;;;;;;;18.50;11.35;;;18.70;99.90;;;;;;4974710;28;20031;-77
2023/09/11 03:48:28;;;;;;;16.35;11.50;;;18.70;99.90;;;;;;4969420;28;20028;-79
2023/09/11 03:50:57;;;;;;;15.13;11.32;;;18.80;99.90;;;;;;4970470;28;20023;-80
2023/09/11 03:53:25;;;;;;;14.02;10.18;;;18.70;99.90;;;;;;4955442;28;20036;-78
2023/09/11 03:55:51;;;;;;;14.43;10.00;;;18.70;99.90;;;;;;4953858;29;20113;-80
2023/09/11 03:58:17;;;;;;;18.33;10.70;;;18.80;99.90;;;;;;4956495;28;20074;-80
2023/09/11 04:00:44;;;;;;;15.48;10.45;;;18.80;99.90;;;;;;4969861;28;20039;-77
2023/09/11 04:03:09;;;;;;;12.77;10.55;;;18.70;99.90;;;;;;4951876;28;20119;-78
2023/09/11 04:05:35;;;;;;;13.77;10.57;;;18.70;99.90;;;;;;4953050;28;20050;-80
2023/09/11 04:08:02;;;;;;;13.43;10.07;;;18.70;99.90;;;;;;4975932;28;20039;-79
2023/09/11 04:10:31;;;;;;;18.92;10.90;;;18.70;99.90;;;;;;4958323;28;20031;-80
2023/09/11 04:12:58;;;;;;;13.07;10.40;;;18.70;99.90;;;;;;4958083;28;20031;-79
2023/09/11 04:15:24;;;;;;;14.52;10.30;;;18.60;99.90;;;;;;4969717;28;20089;-80
2023/09/11 04:17:59;;;;;;;13.40;10.27;;;18.60;99.90;;;;;;4954344;28;20050;-77
2023/09/11 04:20:29;;;;;;;14.52;10.65;;;18.60;99.90;;;;;;4969964;28;20037;-77
2023/09/11 04:23:09;;;;;;;13.68;10.80;;;18.50;99.90;;;;;;4944755;28;20078;-77
2023/09/11 04:25:35;;;;;;;13.88;10.27;;;18.50;99.90;;;;;;4950888;29;20028;-78
2023/09/11 04:28:06;;;;;;;14.65;11.07;;;18.50;99.90;;;;;;4952852;28;20086;-76
2023/09/11 04:30:32;;;;;;;13.77;10.57;;;18.50;99.90;;;;;;4950429;29;20042;-78
2023/09/11 04:32:57;;;;;;;16.70;11.20;;;18.50;99.90;;;;;;4950408;28;20501;-78
2023/09/11 04:35:26;;;;;;;20.20;11.23;;;18.50;99.90;;;;;;4954268;28;20039;-77
2023/09/11 04:37:52;;;;;;;14.50;11.63;;;18.50;99.90;;;;;;4947468;28;20023;-77
2023/09/11 04:40:18;;;;;;;15.27;9.63;;;18.50;99.90;;;;;;4950680;28;20027;-78
2023/09/11 04:42:49;;;;;;;12.65;10.48;;;18.50;99.90;;;;;;4951114;28;20051;-75
2023/09/11 04:45:21;;;;;;;15.10;10.02;;;18.40;99.90;;;;;;4953093;28;20031;-75
2023/09/11 04:47:59;;;;;;;13.95;9.70;;;18.30;99.90;;;;;;4963590;28;20035;-78
2023/09/11 04:50:24;;;;;;;14.15;9.93;;;18.30;99.90;;;;;;4947963;28;20082;-77
2023/09/11 04:52:55;;;;;;;14.40;9.88;;;18.30;99.90;;;;;;4947751;28;20479;-77
2023/09/11 04:55:36;;;;;;;11.20;9.95;;;18.20;99.90;;;;;;4965114;28;20062;-78
2023/09/11 04:58:05;;;;;;;13.45;10.57;;;18.20;99.90;;;;;;4952346;28;20525;-77
2023/09/11 05:00:30;;;;;;;14.15;9.88;;;18.20;99.90;;;;;;4964908;28;20035;-77
2023/09/11 05:02:56;;;;;;;18.55;10.65;;;18.20;99.90;;;;;;4956894;28;20119;-76
2023/09/11 05:05:22;;;;;;;14.23;9.77;;;18.20;99.90;;;;;;4956539;28;20027;-76
2023/09/11 05:07:50;;;;;;;13.20;10.35;;;18.20;99.90;;;;;;4946114;28;20098;-77
2023/09/11 05:10:25;;;;;;;13.52;10.55;;;18.10;99.90;;;;;;4950277;28;20027;-77
2023/09/11 05:12:54;;;;;;;15.65;11.02;;;18.10;99.90;;;;;;4946775;28;20398;-77
2023/09/11 05:15:19;;;;;;;13.25;9.50;;;18.10;99.90;;;;;;4948499;28;20028;-77
2023/09/11 05:17:48;;;;;;;12.27;9.52;;;18.10;99.90;;;;;;4947922;28;20023;-77
2023/09/11 05:20:16;;;;;;;15.98;10.95;;;18.10;99.90;;;;;;4950487;28;20486;-75
2023/09/11 05:22:42;;;;;;;15.57;11.40;;;18.10;99.90;;;;;;4949909;28;20035;-77
2023/09/11 05:25:08;;;;;;;15.45;10.18;;;18.10;99.90;;;;;;4963863;28;20058;-76
2023/09/11 05:27:34;;;;;;;15.93;10.48;;;18.20;99.90;;;;;;4956812;28;20023;-75
2023/09/11 05:30:00;;;;;;;15.35;10.77;;;18.20;99.90;;;;;;4957900;28;20038;-75
2023/09/11 05:32:25;;;;;;;15.55;10.98;;;18.20;99.90;;;;;;4957467;28;20070;-74
2023/09/11 05:35:00;;;;;;;15.63;11.60;;;18.30;99.90;;;;;;4957490;28;20045;-73
2023/09/11 05:37:25;;;;;;;15.40;11.43;;;18.30;99.90;;;;;;4957589;28;20406;-75
2023/09/11 05:39:54;;;;;;;15.75;11.30;;;18.30;99.90;;;;;;4957354;28;20024;-75
2023/09/11 05:42:19;;;;;;;19.15;12.65;;;18.40;99.90;;;;;;4955732;28;20035;-75
2023/09/11 05:44:45;;;;;;;17.88;13.00;;;18.40;99.90;;;;;;4957513;29;20030;-75
2023/09/11 05:47:10;;;;;;;18.73;12.73;;;18.50;99.90;;;;;;4971739;28;20533;-75
2023/09/11 05:49:36;;;;;;;17.73;12.05;;;18.60;99.90;;;;;;4956713;29;20034;-73
2023/09/11 05:52:05;;;;;;;21.73;12.38;;;18.60;99.90;;;;;;4957054;28;20031;-74
2023/09/11 05:54:33;;;;;;;19.10;11.73;;;18.60;99.90;;;;;;4956302;28;20031;-75
2023/09/11 05:56:59;;;;;;;16.95;12.40;;;18.70;99.90;;;;;;4955370;28;20027;-75
2023/09/11 05:59:28;;;;;;;17.08;11.52;;;18.70;99.90;;;;;;4957112;28;20074;-78
2023/09/11 06:01:54;;;;;;;16.45;10.98;;;18.80;99.90;;;;;;4953276;28;20536;-78
2023/09/11 06:04:26;;;;;;;16.25;11.38;;;18.80;99.90;;;;;;4968050;28;20494;-78
2023/09/11 06:06:57;;;;;;;16.52;11.05;;;18.90;99.90;;;;;;4957898;28;20027;-78
2023/09/11 06:09:26;;;;;;;14.77;10.88;;;18.90;99.90;;;;;;4955023;29;20122;-76
2023/09/11 06:11:58;;;;;;;16.02;11.85;;;19.00;99.90;;;;;;4970086;28;20094;-78
2023/09/11 06:14:23;;;;;;;17.38;10.80;;;19.00;99.90;;;;;;4954403;28;20050;-76
2023/09/11 06:16:50;;;;;;;16.48;11.15;;;19.10;99.90;;;;;;4971226;28;20023;-78
2023/09/11 06:19:18;;;;;;;16.60;11.45;;;19.10;99.90;;;;;;4954261;28;20031;-76
2023/09/11 06:21:53;;;;;;;16.30;10.02;;;19.10;99.90;;;;;;4955333;28;20039;-77
2023/09/11 06:24:25;;;;;;;17.50;10.15;;;19.20;99.90;;;;;;4953343;28;20117;-78
2023/09/11 06:27:03;;;;;;;14.43;10.60;;;19.20;99.90;;;;;;4955726;28;20043;-78
2023/09/11 06:29:28;;;;;;;15.57;10.75;;;19.20;99.90;;;;;;4953525;28;20072;-80
2023/09/11 06:31:57;;;;;;;16.02;10.25;;;19.20;99.90;;;;;;4955771;28;20081;-77
2023/09/11 06:34:29;;;;;;;17.45;10.77;;;19.20;99.90;;;;;;4953239;28;20039;-77
2023/09/11 06:36:56;;;;;;;17.40;11.00;;;19.30;99.90;;;;;;4971639;28;20118;-78
2023/09/11 06:39:21;;;;;;;16.63;11.18;;;19.30;99.90;;;;;;4956283;28;20024;-78
2023/09/11 06:41:47;;;;;;;16.02;11.98;;;19.40;99.90;;;;;;4953404;28;20042;-77
2023/09/11 06:44:13;;;;;;;17.85;12.07;;;19.40;99.90;;;;;;4953358;28;20027;-77
2023/09/11 06:46:38;;;;;;;16.13;12.38;;;19.40;99.90;;;;;;4953179;28;20042;-77
2023/09/11 06:49:04;;;;;;;16.15;11.57;;;19.40;99.90;;;;;;4969179;28;20038;-78
2023/09/11 06:51:33;;;;;;;18.98;12.40;;;19.50;99.90;;;;;;4952063;28;20112;-76
2023/09/11 06:53:59;;;;;;;19.48;10.70;;;19.50;99.90;;;;;;4951644;28;20106;-78
2023/09/11 06:56:36;;;;;;;16.58;11.38;;;19.50;99.90;;;;;;4951738;28;20511;-77
2023/09/11 06:59:11;;;;;;;13.75;10.85;;;19.50;99.90;;;;;;4948623;28;20031;-77
2023/09/11 07:01:39;;;;;;;16.35;11.27;;;19.60;99.90;;;;;;4948157;28;20439;-75
2023/09/11 07:04:17;;;;;;;13.77;9.95;;;19.60;99.90;;;;;;4966932;28;20124;-76
2023/09/11 07:06:46;;;;;;;14.40;10.35;;;19.70;99.90;;;;;;4951557;29;20035;-76
2023/09/11 07:09:24;;;;;;;15.00;10.02;;;19.70;99.90;;;;;;4951525;28;20501;-76
2023/09/11 07:11:53;;;;;;;16.67;10.25;;;19.70;99.90;;;;;;4951335;28;20023;-78
2023/09/11 07:14:31;;;;;;;12.55;9.95;;;19.80;99.90;;;;;;4952226;28;20023;-78
2023/09/11 07:17:02;;;;;;;19.98;10.70;;;19.80;99.90;;;;;;4948046;28;20027;-77
2023/09/11 07:19:27;;;;;;;13.45;10.23;;;19.90;99.90;;;;;;4964134;28;20039;-75
2023/09/11 07:22:03;;;;;;;15.02;11.05;;;19.90;99.90;;;;;;4944551;28;20374;-76
2023/09/11 07:24:28;;;;;;;15.57;10.45;;;20.00;99.90;;;;;;4944890;28;20766;-77
2023/09/11 07:26:54;;;;;;;16.05;10.82;;;20.10;99.90;;;;;;4965353;28;20028;-78
2023/09/11 07:29:24;;;;;;;16.27;10.57;;;20.20;99.90;;;;;;4969590;28;20031;-79
2023/09/11 07:31:49;;;;;;;17.48;11.13;;;20.20;99.90;;;;;;4980521;23;20068;-73
2023/09/11 07:34:24;;;;;;;15.68;10.93;;;20.30;99.90;;;;;;4961577;28;20035;-73
2023/09/11 07:36:50;;;;;;;16.52;11.45;;;20.40;99.90;;;;;;4962461;28;20019;-74
2023/09/11 07:39:15;;;;;;;17.30;11.52;;;20.40;99.90;;;;;;4952960;28;20053;-74
2023/09/11 07:41:41;;;;;;;13.95;10.48;;;20.50;99.90;;;;;;4964838;28;20453;-74
2023/09/11 07:44:09;;;;;;;14.73;11.60;;;20.50;99.90;;;;;;4945148;28;20023;-74
2023/09/11 07:46:37;;;;;;;14.32;11.13;;;20.60;99.90;;;;;;4946279;28;20102;-74
2023/09/11 07:49:06;;;;;;;16.98;11.00;;;20.70;99.90;;;;;;4953565;28;20051;-74
2023/09/11 07:51:35;;;;;;;18.38;11.20;;;20.70;99.90;;;;;;4964623;28;20034;-74
2023/09/11 07:54:00;;;;;;;15.20;11.13;;;20.80;99.90;;;;;;4949668;28;20070;-73
2023/09/11 07:56:29;;;;;;;13.23;10.77;;;20.80;99.90;;;;;;4950064;28;20023;-74
2023/09/11 07:59:07;;;;;;;16.65;10.50;;;20.90;99.90;;;;;;4949309;28;20497;-73
2023/09/11 08:01:37;;;;;;;18.95;11.25;;;21.00;99.90;;;;;;4963511;28;20034;-74
2023/09/11 08:04:06;;;;;;;15.45;9.88;;;21.10;99.90;;;;;;4962899;28;20090;-73
2023/09/11 08:06:34;;;;;;;17.05;10.60;;;21.20;99.90;;;;;;4950514;28;20023;-74
2023/09/11 08:09:03;;;;;;;13.50;10.02;;;21.20;99.90;;;;;;4950238;28;20044;-74
2023/09/11 08:11:34;;;;;;;14.07;10.38;;;21.30;99.90;;;;;;4949551;28;20062;-71
2023/09/11 08:14:07;;;;;;;14.27;10.23;;;21.30;99.90;;;;;;4948451;28;20390;-73
2023/09/11 08:16:32;;;;;;;13.20;9.75;;;21.40;99.90;;;;;;4954631;28;20027;-73
2023/09/11 08:18:58;;;;;;;16.65;10.45;;;21.50;99.90;;;;;;4951998;28;20410;-73
2023/09/11 08:21:26;;;;;;;13.75;9.93;;;21.60;99.90;;;;;;4949960;28;20467;-72
2023/09/11 08:23:58;;;;;;;13.50;10.35;;;21.60;99.90;;;;;;4946400;28;20028;-72
2023/09/11 08:26:24;;;;;;;14.38;10.25;;;21.70;99.90;;;;;;4951367;28;20027;-72
2023/09/11 08:28:55;;;;;;;112.28;19.70;;;21.80;99.90;;;;;;4953667;28;20042;-72
2023/09/11 08:31:21;;;;;;;20.58;9.95;;;21.90;99.90;;;;;;4948403;28;20034;-72
2023/09/11 08:33:50;;;;;;;73.80;14.90;;;22.00;99.90;;;;;;4951749;28;20410;-73
2023/09/11 08:36:18;;;;;;;29.75;10.98;;;22.00;99.90;;;;;;4966711;28;20129;-73
2023/09/11 08:38:45;;;;;;;15.98;10.02;;;22.10;99.90;;;;;;4962343;28;20034;-72
2023/09/11 08:41:19;;;;;;;17.55;9.45;;;22.20;99.90;;;;;;4952543;28;20035;-72
2023/09/11 08:43:44;;;;;;;17.40;9.43;;;22.30;99.90;;;;;;4948928;28;20050;-73
2023/09/11 08:46:14;;;;;;;13.23;9.23;;;22.40;99.90;;;;;;4947778;28;20027;-73
2023/09/11 08:48:43;;;;;;;13.18;9.50;;;22.40;99.90;;;;;;4951942;28;20587;-73
2023/09/11 08:51:15;;;;;;;15.77;9.52;;;22.50;99.90;;;;;;4952771;28;20031;-73
2023/09/11 08:53:45;;;;;;;18.20;9.85;;;22.60;99.90;;;;;;4945393;28;20066;-72
2023/09/11 08:56:11;;;;;;;14.15;8.85;;;22.60;99.90;;;;;;4948367;28;20039;-72
2023/09/11 08:58:41;;;;;;;11.63;9.40;;;22.70;99.90;;;;;;4961632;28;21410;-73
2023/09/11 09:01:10;;;;;;;14.80;8.80;;;22.80;99.90;;;;;;4953811;28;20037;-73
2023/09/11 09:03:40;;;;;;;11.07;8.63;;;22.90;99.90;;;;;;4969291;28;20482;-73
2023/09/11 09:06:06;;;;;;;16.90;9.05;;;23.00;99.90;;;;;;4951210;28;20058;-73
2023/09/11 09:08:41;;;;;;;12.98;9.32;;;23.00;99.90;;;;;;4954396;28;20031;-74
2023/09/11 09:11:07;;;;;;;11.20;8.75;;;23.10;99.90;;;;;;4948919;28;20036;-74
2023/09/11 09:13:36;;;;;;;12.98;8.80;;;23.10;99.90;;;;;;4952641;28;20031;-72
2023/09/11 09:16:02;;;;;;;12.27;8.38;;;23.20;99.90;;;;;;4954814;28;20030;-74
2023/09/11 09:18:31;;;;;;;13.15;8.52;;;23.30;99.90;;;;;;4952863;28;20031;-73
2023/09/11 09:21:00;;;;;;;15.65;7.80;;;23.40;99.90;;;;;;4968590;28;20437;-73
2023/09/11 09:23:44;;;;;;;13.60;8.23;;;23.60;99.90;;;;;;4956860;28;20023;-73
2023/09/11 09:26:10;;;;;;;11.35;8.25;;;23.70;99.90;;;;;;4955160;28;20024;-73
2023/09/11 09:28:43;;;;;;;12.27;7.80;;;23.70;99.90;;;;;;4955890;28;20035;-73
2023/09/11 09:31:22;;;;;;;12.07;7.10;;;23.80;99.90;;;;;;4959965;28;20103;-72
2023/09/11 09:33:57;;;;;;;10.85;7.20;;;23.90;99.90;;;;;;4956750;28;20394;-73
2023/09/11 09:36:23;;;;;;;12.77;7.85;;;24.00;99.90;;;;;;4950284;28;20023;-73
2023/09/11 09:38:52;;;;;;;10.57;7.05;;;24.10;99.90;;;;;;4954859;28;20071;-73
2023/09/11 09:41:23;;;;;;;10.02;6.78;;;24.20;99.90;;;;;;4956580;28;20031;-71
2023/09/11 09:43:55;;;;;;;10.55;6.75;;;24.20;99.90;;;;;;4957100;28;20096;-77
2023/09/11 09:46:21;;;;;;;11.32;6.88;;;24.30;99.90;;;;;;4975376;28;20035;-80
2023/09/11 09:48:50;;;;;;;12.27;7.38;;;24.50;99.90;;;;;;4959683;28;20038;-79
2023/09/11 09:51:16;;;;;;;11.18;6.65;;;24.50;99.90;;;;;;4972554;28;20099;-78
2023/09/11 09:53:46;;;;;;;11.07;5.97;;;24.60;99.90;;;;;;4975504;28;20062;-78
2023/09/11 09:56:15;;;;;;;12.85;7.32;;;24.80;99.80;;;;;;4960518;28;20031;-79
2023/09/11 09:58:47;;;;;;;9.73;6.30;;;24.90;99.80;;;;;;4954460;28;20039;-77
2023/09/11 10:01:17;;;;;;;9.27;6.00;;;25.00;99.10;;;;;;4959357;28;20086;-79
2023/09/11 10:03:50;;;;;;;14.50;6.55;;;25.00;98.50;;;;;;4976199;28;20023;-80
2023/09/11 10:06:16;;;;;;;10.38;6.13;;;25.10;98.10;;;;;;4970876;28;20035;-77
2023/09/11 10:08:41;;;;;;;12.35;6.03;;;25.20;97.90;;;;;;4959975;28;20023;-77
2023/09/11 10:11:07;;;;;;;12.93;6.90;;;25.20;97.90;;;;;;4972169;28;20043;-77
2023/09/11 10:13:36;;;;;;;13.43;6.38;;;25.30;98.10;;;;;;4971232;28;20110;-78
2023/09/11 10:16:05;;;;;;;13.25;7.28;;;25.30;98.40;;;;;;4955650;28;20032;-78
2023/09/11 10:18:37;;;;;;;13.82;6.90;;;25.40;98.80;;;;;;4954362;28;20130;-78
2023/09/11 10:21:02;;;;;;;13.88;7.78;;;25.40;98.80;;;;;;4953456;28;20035;-78
2023/09/11 10:23:28;;;;;;;10.18;6.70;;;25.40;98.60;;;;;;4954728;28;20020;-77
2023/09/11 10:26:03;;;;;;;14.80;7.05;;;25.50;98.30;;;;;;4954865;28;20488;-78
2023/09/11 10:28:35;;;;;;;15.63;7.25;;;25.60;98.10;;;;;;4953711;28;20028;-78
2023/09/11 10:31:45;;;;;;;10.38;6.53;;;25.70;98.00;;;;;;4950875;28;20733;-76
2023/09/11 10:34:11;;;;;;;12.55;6.90;;;25.80;97.90;;;;;;4944091;28;20055;-77
2023/09/11 10:36:40;;;;;;;9.43;6.15;;;25.90;97.30;;;;;;4954788;28;20050;-78
2023/09/11 10:39:11;;;;;;;8.20;6.03;;;25.90;96.90;;;;;;4964445;28;20549;-78
2023/09/11 10:41:37;;;;;;;7.82;5.82;;;25.90;96.90;;;;;;4968655;28;20082;-77
2023/09/11 10:44:03;;;;;;;9.70;6.40;;;26.00;96.70;;;;;;4957747;28;20089;-76
2023/09/11 10:46:34;;;;;;;9.85;6.40;;;26.00;96.80;;;;;;4970424;28;20204;-78
2023/09/11 10:49:17;;;;;;;11.32;6.43;;;26.10;96.40;;;;;;4961946;28;20035;-78
2023/09/11 10:51:46;;;;;;;8.85;6.53;;;26.00;96.00;;;;;;4961883;28;20615;-75
2023/09/11 10:54:13;;;;;;;12.57;5.93;;;26.00;96.30;;;;;;4947288;28;20027;-79
2023/09/11 10:56:38;;;;;;;11.30;6.65;;;26.00;96.30;;;;;;4953472;28;20035;-77
2023/09/11 10:59:07;;;;;;;8.27;5.90;;;26.00;96.20;;;;;;4953392;28;20038;-77
2023/09/11 11:01:33;;;;;;;8.60;5.30;;;26.10;96.10;;;;;;4969067;28;20027;-77
2023/09/11 11:04:06;;;;;;;11.63;6.38;;;26.10;95.90;;;;;;4950400;28;20015;-78
2023/09/11 11:06:34;;;;;;;9.13;6.07;;;26.20;95.20;;;;;;4950405;28;20031;-77
2023/09/11 11:09:01;;;;;;;10.02;5.55;;;26.20;94.90;;;;;;4951984;28;20029;-78
2023/09/11 11:11:30;;;;;;;8.23;5.00;;;26.40;94.70;;;;;;4957905;28;20033;-78
2023/09/11 11:14:14;;;;;;;7.78;4.60;;;26.40;93.80;;;;;;4956223;28;20027;-76
2023/09/11 11:16:52;;;;;;;8.90;5.40;;;26.50;92.90;;;;;;4945632;28;20062;-77
2023/09/11 11:19:32;;;;;;;9.48;5.30;;;26.50;92.30;;;;;;4953350;28;20038;-77
2023/09/11 11:22:03;;;;;;;12.25;5.35;;;26.60;92.40;;;;;;4953484;28;20482;-76
2023/09/11 11:24:34;;;;;;;10.10;6.15;;;26.70;92.80;;;;;;4951795;28;20019;-78
2023/09/11 11:27:08;;;;;;;13.02;6.13;;;26.70;92.90;;;;;;4951788;28;20015;-75
2023/09/11 11:29:34;;;;;;;10.07;4.95;;;26.70;92.90;;;;;;4964997;28;20027;-78
2023/09/11 11:32:05;;;;;;;6.78;4.95;;;26.80;92.70;;;;;;4951192;28;20398;-78
2023/09/11 11:34:41;;;;;;;9.45;4.60;;;26.70;92.20;;;;;;4951766;28;20041;-77
2023/09/11 11:37:09;;;;;;;6.82;4.20;;;26.80;90.20;;;;;;4952873;28;20035;-76
2023/09/11 11:39:39;;;;;;;8.57;3.90;;;26.90;86.70;;;;;;4950668;28;20031;-78
2023/09/11 11:42:07;;;;;;;9.15;4.70;;;26.90;85.00;;;;;;4946766;28;20206;-77
2023/09/11 11:44:34;;;;;;;8.80;4.50;;;26.90;85.10;;;;;;4967601;28;20038;-77
2023/09/11 11:47:07;;;;;;;7.53;4.30;;;26.90;83.90;;;;;;4948573;28;20047;-78
2023/09/11 11:49:37;;;;;;;7.35;4.18;;;26.90;83.00;;;;;;4955043;28;20414;-79
2023/09/11 11:52:06;;;;;;;10.77;4.07;;;27.00;82.10;;;;;;4970692;28;20370;-77
2023/09/11 11:54:33;;;;;;;9.75;4.95;;;27.10;81.40;;;;;;4947898;28;20036;-77
2023/09/11 11:57:05;;;;;;;6.20;4.18;;;27.20;81.40;;;;;;4951161;28;20118;-76
2023/09/11 11:59:39;;;;;;;12.60;5.20;;;27.10;81.70;;;;;;4966271;28;20174;-78
2023/09/11 12:02:22;;;;;;;10.35;4.85;;;27.20;81.80;;;;;;4952313;28;20030;-78
2023/09/11 12:04:53;;;;;;;12.52;5.68;;;27.20;84.60;;;;;;4953392;28;20091;-77
2023/09/11 12:07:23;;;;;;;10.40;4.75;;;27.30;85.80;;;;;;4952243;28;20070;-78
2023/09/11 12:09:49;;;;;;;9.35;4.90;;;27.30;85.90;;;;;;4953677;28;20039;-78
2023/09/11 12:12:15;;;;;;;8.32;4.88;;;27.40;86.00;;;;;;4970622;28;20055;-78
2023/09/11 12:14:41;;;;;;;7.25;5.22;;;27.50;85.40;;;;;;4951764;28;20070;-76
2023/09/11 12:17:13;;;;;;;10.48;4.60;;;27.50;85.20;;;;;;4969686;28;20055;-77
2023/09/11 12:19:42;;;;;;;10.18;5.30;;;27.50;84.20;;;;;;4953154;28;20039;-78
2023/09/11 12:22:12;;;;;;;13.38;5.93;;;27.60;83.90;;;;;;4949146;28;20043;-78
2023/09/11 12:24:38;;;;;;;12.23;4.60;;;27.60;84.40;;;;;;4953944;28;20018;-78
2023/09/11 12:27:07;;;;;;;9.68;4.90;;;27.60;83.30;;;;;;4950752;28;20237;-77
2023/09/11 12:29:33;;;;;;;8.40;4.43;;;27.60;82.90;;;;;;4965068;28;20054;-76
2023/09/11 12:31:59;;;;;;;12.75;4.40;;;27.50;80.80;;;;;;4952722;28;20028;-77
2023/09/11 12:34:25;;;;;;;12.80;4.93;;;27.60;79.70;;;;;;4965814;28;20046;-77
2023/09/11 12:36:51;;;;;;;10.63;4.38;;;27.50;80.10;;;;;;4956468;28;20032;-79
2023/09/11 12:39:22;;;;;;;7.80;4.38;;;27.50;80.50;;;;;;4962900;28;20024;-77
2023/09/11 12:41:51;;;;;;;10.93;4.93;;;27.50;80.50;;;;;;4955213;28;20035;-77
2023/09/11 12:44:19;;;;;;;13.43;4.40;;;27.50;78.30;;;;;;4955293;28;20035;-77